Time;durP1;ratioP1;P1;durP2;ratioP2;P2;SDS_P1;SDS_P2;PMS_P1;PMS_P2;Temp;Humidity;BMP_temperature;BMP_pressure;BME280_temperature;BME280_humidity;BME280_pressure;Samples;Min_cycle;Max_cycle;Signal;HPM_P1;HPM_P2
2023/05/02 00:00:04;;;;;;;4.25;3.85;;;;;;;;;;4994951;28;20297;-57
2023/05/02 00:02:30;;;;;;;4.28;3.70;;;;;;;;;;4995947;28;20189;-57
2023/05/02 00:04:56;;;;;;;6.05;3.88;;;;;;;;;;4995705;28;20227;-57
2023/05/02 00:07:22;;;;;;;5.75;4.22;;;;;;;;;;4994095;28;20500;-57
2023/05/02 00:09:48;;;;;;;4.03;3.60;;;;;;;;;;4995434;28;20217;-57
2023/05/02 00:12:14;;;;;;;5.20;4.10;;;;;;;;;;4995229;28;20188;-57
2023/05/02 00:14:40;;;;;;;4.05;3.65;;;;;;;;;;4993992;28;21988;-57
2023/05/02 00:17:05;;;;;;;4.00;3.60;;;;;;;;;;4970980;28;20248;-56
2023/05/02 00:19:31;;;;;;;4.38;3.85;;;;;;;;;;4977857;28;20283;-56
2023/05/02 00:21:57;;;;;;;4.75;3.70;;;;;;;;;;4995948;28;20181;-56
2023/05/02 00:24:23;;;;;;;5.45;4.05;;;;;;;;;;4995026;28;20181;-56
2023/05/02 00:26:49;;;;;;;4.75;3.92;;;;;;;;;;4994099;28;20185;-56
2023/05/02 00:29:15;;;;;;;4.72;3.88;;;;;;;;;;4994341;28;20223;-56
2023/05/02 00:31:41;;;;;;;4.28;3.88;;;;;;;;;;4994597;28;20561;-56
2023/05/02 00:34:07;;;;;;;4.22;3.17;;;;;;;;;;4994603;28;20525;-56
2023/05/02 00:36:33;;;;;;;4.03;3.63;;;;;;;;;;4995647;28;20199;-56
2023/05/02 00:38:59;;;;;;;6.05;3.90;;;;;;;;;;4993933;28;20185;-57
2023/05/02 00:41:25;;;;;;;4.40;3.58;;;;;;;;;;4994950;28;20287;-56
2023/05/02 00:43:50;;;;;;;4.07;3.67;;;;;;;;;;4994376;28;20543;-56
2023/05/02 00:46:16;;;;;;;4.65;3.85;;;;;;;;;;4995055;28;20680;-56
2023/05/02 00:48:44;;;;;;;4.00;3.60;;;;;;;;;;4994485;28;20226;-56
2023/05/02 00:51:11;;;;;;;4.15;3.50;;;;;;;;;;4993204;28;20564;-56
2023/05/02 00:53:37;;;;;;;4.50;3.67;;;;;;;;;;4992702;28;20174;-56
2023/05/02 00:56:03;;;;;;;5.93;3.63;;;;;;;;;;4994782;28;20208;-56
2023/05/02 00:58:29;;;;;;;4.25;3.80;;;;;;;;;;4993052;28;20189;-56
2023/05/02 01:01:14;;;;;;;4.75;3.75;;;;;;;;;;4994232;28;20185;-56
2023/05/02 01:03:43;;;;;;;4.13;3.70;;;;;;;;;;4992857;28;20260;-56
2023/05/02 01:06:28;;;;;;;4.47;3.70;;;;;;;;;;4994180;28;20276;-56
2023/05/02 01:09:13;;;;;;;3.95;3.55;;;;;;;;;;4993158;28;20211;-56
2023/05/02 01:11:42;;;;;;;5.20;3.88;;;;;;;;;;4994871;28;20477;-56
2023/05/02 01:14:10;;;;;;;4.78;3.78;;;;;;;;;;4993565;28;20195;-56
2023/05/02 01:16:39;;;;;;;5.18;4.20;;;;;;;;;;4995008;28;20204;-56
2023/05/02 01:19:05;;;;;;;4.35;3.80;;;;;;;;;;4992696;28;20265;-56
2023/05/02 01:21:32;;;;;;;3.70;3.30;;;;;;;;;;4994025;28;20185;-56
2023/05/02 01:24:14;;;;;;;4.07;3.67;;;;;;;;;;4994500;28;20624;-56
2023/05/02 01:26:51;;;;;;;4.65;3.70;;;;;;;;;;4994568;28;20220;-56
2023/05/02 01:29:18;;;;;;;3.47;3.17;;;;;;;;;;4994662;28;20228;-56
2023/05/02 01:31:46;;;;;;;4.15;3.70;;;;;;;;;;4993803;28;21545;-56
2023/05/02 01:34:12;;;;;;;3.53;3.22;;;;;;;;;;4993180;28;20189;-56
2023/05/02 01:36:42;;;;;;;3.85;3.47;;;;;;;;;;4992727;28;20192;-56
2023/05/02 01:39:09;;;;;;;3.85;3.33;;;;;;;;;;4992655;28;20183;-56
2023/05/02 01:41:36;;;;;;;3.92;3.53;;;;;;;;;;4993662;28;20177;-56
2023/05/02 01:44:02;;;;;;;4.03;3.63;;;;;;;;;;4994133;28;20236;-56
2023/05/02 01:46:32;;;;;;;5.32;3.50;;;;;;;;;;4993850;28;20268;-56
2023/05/02 01:49:00;;;;;;;4.00;3.40;;;;;;;;;;4993474;28;20197;-56
2023/05/02 01:51:30;;;;;;;5.35;3.53;;;;;;;;;;4993915;28;20181;-56
2023/05/02 01:53:58;;;;;;;4.00;3.58;;;;;;;;;;4994581;28;20231;-56
2023/05/02 01:56:24;;;;;;;4.80;3.67;;;;;;;;;;4993108;28;20251;-56
2023/05/02 01:58:52;;;;;;;4.43;3.80;;;;;;;;;;4994248;28;20189;-56
2023/05/02 02:01:19;;;;;;;3.90;3.60;;;;;;;;;;4993240;28;20193;-56
2023/05/02 02:03:45;;;;;;;4.15;3.75;;;;;;;;;;4994055;28;20251;-57
2023/05/02 02:06:12;;;;;;;4.70;3.67;;;;;;;;;;4993986;28;20192;-56
2023/05/02 02:08:38;;;;;;;4.45;3.78;;;;;;;;;;4994099;28;20235;-56
2023/05/02 02:11:08;;;;;;;5.78;3.50;;;;;;;;;;4994297;28;20554;-55
2023/05/02 02:13:37;;;;;;;4.32;3.63;;;;;;;;;;4994857;28;20188;-55
2023/05/02 02:16:04;;;;;;;5.40;3.20;;;;;;;;;;4994050;28;20260;-56
2023/05/02 02:18:32;;;;;;;4.55;3.65;;;;;;;;;;4993753;28;20181;-56
2023/05/02 02:20:59;;;;;;;4.38;3.75;;;;;;;;;;4994320;28;20189;-56
2023/05/02 02:23:26;;;;;;;5.18;3.90;;;;;;;;;;4994761;28;20178;-56
2023/05/02 02:25:53;;;;;;;4.57;3.78;;;;;;;;;;4994081;28;20281;-56
2023/05/02 02:28:19;;;;;;;4.28;3.58;;;;;;;;;;4993975;28;20209;-56
2023/05/02 02:30:45;;;;;;;5.07;3.97;;;;;;;;;;4994768;28;20221;-55
2023/05/02 02:33:11;;;;;;;4.07;3.60;;;;;;;;;;4997855;28;20189;-56
2023/05/02 02:35:47;;;;;;;4.25;3.75;;;;;;;;;;4998127;28;20193;-56
2023/05/02 02:38:32;;;;;;;4.35;3.67;;;;;;;;;;4995374;28;20189;-56
2023/05/02 02:41:06;;;;;;;5.45;4.13;;;;;;;;;;4995962;28;20188;-56
2023/05/02 02:43:35;;;;;;;4.07;3.70;;;;;;;;;;4997353;28;20556;-56
2023/05/02 02:46:25;;;;;;;3.80;3.47;;;;;;;;;;4994913;28;20189;-56
2023/05/02 02:49:06;;;;;;;3.65;3.28;;;;;;;;;;4994712;28;20196;-56
2023/05/02 02:51:37;;;;;;;3.85;3.50;;;;;;;;;;4995730;28;20181;-55
2023/05/02 02:54:21;;;;;;;5.10;3.40;;;;;;;;;;4997473;28;20181;-56
2023/05/02 02:56:50;;;;;;;4.07;3.67;;;;;;;;;;4996484;28;20185;-56
2023/05/02 02:59:16;;;;;;;3.65;3.33;;;;;;;;;;4996631;28;20181;-56
2023/05/02 03:01:43;;;;;;;4.00;3.60;;;;;;;;;;4996586;28;20192;-56
2023/05/02 03:04:10;;;;;;;4.10;3.25;;;;;;;;;;4997675;28;20499;-55
2023/05/02 03:06:36;;;;;;;4.03;3.33;;;;;;;;;;4995247;28;20189;-55
2023/05/02 03:09:03;;;;;;;4.22;3.45;;;;;;;;;;4997067;28;20351;-55
2023/05/02 03:11:29;;;;;;;3.70;3.40;;;;;;;;;;4996954;28;20243;-55
2023/05/02 03:13:54;;;;;;;4.07;3.67;;;;;;;;;;4979590;28;20612;-55
2023/05/02 03:16:33;;;;;;;4.20;3.60;;;;;;;;;;4994832;28;20193;-56
2023/05/02 03:18:59;;;;;;;4.10;3.50;;;;;;;;;;4996865;28;20231;-53
2023/05/02 03:21:25;;;;;;;4.50;3.78;;;;;;;;;;4996732;28;20193;-50
2023/05/02 03:23:51;;;;;;;4.35;3.40;;;;;;;;;;4997054;28;20196;-51
2023/05/02 03:26:17;;;;;;;6.78;4.00;;;;;;;;;;4997101;28;20181;-51
2023/05/02 03:28:45;;;;;;;6.95;3.95;;;;;;;;;;4995642;28;20263;-50
2023/05/02 03:31:12;;;;;;;6.50;3.60;;;;;;;;;;4995596;28;20201;-51
2023/05/02 03:33:38;;;;;;;5.60;3.97;;;;;;;;;;4996585;28;20316;-51
2023/05/02 03:36:04;;;;;;;22.55;6.88;;;;;;;;;;4996150;28;20224;-51
2023/05/02 03:38:30;;;;;;;17.88;6.47;;;;;;;;;;4996743;28;20191;-50
2023/05/02 03:40:57;;;;;;;13.93;5.13;;;;;;;;;;4997142;28;20569;-51
2023/05/02 03:43:23;;;;;;;11.13;5.25;;;;;;;;;;4995889;28;20210;-51
2023/05/02 03:45:49;;;;;;;50.53;12.38;;;;;;;;;;4995528;28;20893;-50
2023/05/02 03:48:15;;;;;;;71.95;18.58;;;;;;;;;;4995284;28;20233;-51
2023/05/02 03:50:42;;;;;;;80.95;19.23;;;;;;;;;;4995133;28;20209;-51
2023/05/02 03:53:08;;;;;;;73.35;17.98;;;;;;;;;;4996776;28;20567;-51
2023/05/02 03:55:38;;;;;;;71.07;16.08;;;;;;;;;;4995622;28;20573;-51
2023/05/02 03:58:04;;;;;;;52.15;14.10;;;;;;;;;;4995564;28;20192;-51
2023/05/02 04:00:31;;;;;;;41.95;12.75;;;;;;;;;;4995865;28;20189;-51
2023/05/02 04:02:57;;;;;;;44.70;13.32;;;;;;;;;;4996089;28;20189;-51
2023/05/02 04:05:22;;;;;;;33.00;12.00;;;;;;;;;;4995874;28;20248;-51
2023/05/02 04:07:48;;;;;;;32.72;10.45;;;;;;;;;;4989449;28;20268;-51
2023/05/02 04:10:16;;;;;;;33.95;10.25;;;;;;;;;;4995654;28;20201;-51
2023/05/02 04:12:42;;;;;;;36.05;10.55;;;;;;;;;;4996345;28;20447;-51
2023/05/02 04:15:09;;;;;;;32.15;11.50;;;;;;;;;;4995442;28;20193;-51
2023/05/02 04:17:35;;;;;;;35.05;10.40;;;;;;;;;;4995080;28;20192;-51
2023/05/02 04:20:01;;;;;;;34.78;10.70;;;;;;;;;;4995687;28;20181;-51
2023/05/02 04:22:27;;;;;;;36.17;12.15;;;;;;;;;;4995808;28;20193;-51
2023/05/02 04:24:53;;;;;;;25.50;9.88;;;;;;;;;;4995711;28;20195;-51
2023/05/02 04:27:19;;;;;;;22.55;9.75;;;;;;;;;;4994063;28;20188;-51
2023/05/02 04:29:49;;;;;;;27.40;9.95;;;;;;;;;;4994205;28;20258;-51
2023/05/02 04:32:15;;;;;;;22.50;9.50;;;;;;;;;;4995088;28;20259;-51
2023/05/02 04:34:41;;;;;;;27.55;9.82;;;;;;;;;;4995763;28;20200;-51
2023/05/02 04:37:07;;;;;;;18.48;8.30;;;;;;;;;;4995122;28;20186;-51
2023/05/02 04:39:33;;;;;;;21.65;8.98;;;;;;;;;;4994336;28;20239;-51
2023/05/02 04:41:59;;;;;;;20.23;9.20;;;;;;;;;;4994773;28;20187;-51
2023/05/02 04:44:25;;;;;;;21.27;8.48;;;;;;;;;;4995055;28;20193;-51
2023/05/02 04:46:51;;;;;;;20.60;8.90;;;;;;;;;;4994943;28;20185;-51
2023/05/02 04:49:17;;;;;;;18.67;8.07;;;;;;;;;;4995135;28;20189;-51
2023/05/02 04:51:44;;;;;;;18.88;8.52;;;;;;;;;;4993493;28;20197;-51
2023/05/02 04:54:10;;;;;;;23.05;8.45;;;;;;;;;;4994486;28;20185;-51
2023/05/02 04:56:36;;;;;;;19.00;9.07;;;;;;;;;;4994333;28;20378;-51
2023/05/02 04:59:02;;;;;;;17.08;8.60;;;;;;;;;;4993840;28;20569;-51
2023/05/02 05:01:28;;;;;;;20.20;7.63;;;;;;;;;;4994716;28;20197;-51
2023/05/02 05:03:54;;;;;;;20.65;7.65;;;;;;;;;;4995274;28;20279;-51
2023/05/02 05:06:20;;;;;;;15.45;8.60;;;;;;;;;;4988668;28;20216;-51
2023/05/02 05:08:46;;;;;;;16.25;7.82;;;;;;;;;;4993360;28;20283;-51
2023/05/02 05:11:12;;;;;;;14.60;7.93;;;;;;;;;;4992537;28;20276;-51
2023/05/02 05:13:38;;;;;;;12.82;7.70;;;;;;;;;;4993998;28;20200;-51
2023/05/02 05:16:04;;;;;;;14.95;7.82;;;;;;;;;;4994133;28;20185;-51
2023/05/02 05:18:30;;;;;;;13.73;6.90;;;;;;;;;;4991311;28;20193;-51
2023/05/02 05:20:56;;;;;;;13.88;7.32;;;;;;;;;;4993579;28;20184;-51
2023/05/02 05:23:22;;;;;;;15.05;7.00;;;;;;;;;;4993219;28;20624;-51
2023/05/02 05:25:48;;;;;;;15.48;7.20;;;;;;;;;;4991802;28;20197;-51
2023/05/02 05:28:14;;;;;;;13.80;7.25;;;;;;;;;;4993231;28;20438;-51
2023/05/02 05:30:40;;;;;;;14.15;6.68;;;;;;;;;;4994820;28;20200;-51
2023/05/02 05:33:06;;;;;;;12.13;6.50;;;;;;;;;;4993346;28;20218;-51
2023/05/02 05:35:32;;;;;;;13.13;7.10;;;;;;;;;;4994226;28;20196;-51
2023/05/02 05:37:58;;;;;;;12.07;6.63;;;;;;;;;;4992014;28;20797;-51
2023/05/02 05:40:24;;;;;;;13.55;6.40;;;;;;;;;;4993262;28;20601;-51
2023/05/02 05:42:50;;;;;;;9.40;5.97;;;;;;;;;;4993282;28;20212;-51
2023/05/02 05:45:18;;;;;;;11.80;6.55;;;;;;;;;;4993680;28;20200;-51
2023/05/02 05:47:44;;;;;;;15.15;6.78;;;;;;;;;;4992953;28;20220;-51
2023/05/02 05:50:10;;;;;;;12.43;6.72;;;;;;;;;;4994177;28;20627;-51
2023/05/02 05:52:36;;;;;;;9.30;6.18;;;;;;;;;;4993365;28;20189;-51
2023/05/02 05:55:03;;;;;;;8.93;6.50;;;;;;;;;;4994198;28;20189;-51
2023/05/02 05:57:29;;;;;;;13.80;6.47;;;;;;;;;;4992929;28;20235;-51
2023/05/02 05:59:55;;;;;;;9.30;6.15;;;;;;;;;;4993196;28;20528;-51
2023/05/02 06:02:21;;;;;;;8.75;5.97;;;;;;;;;;4993701;28;20260;-51
2023/05/02 06:04:47;;;;;;;8.95;5.88;;;;;;;;;;4994366;28;20259;-51
2023/05/02 06:07:13;;;;;;;8.93;6.05;;;;;;;;;;4996453;28;20201;-51
2023/05/02 06:09:39;;;;;;;9.15;5.22;;;;;;;;;;4997783;28;20212;-51
2023/05/02 06:12:05;;;;;;;8.63;6.10;;;;;;;;;;4996400;28;20478;-51
2023/05/02 06:14:31;;;;;;;10.23;5.50;;;;;;;;;;4997684;28;20271;-51
2023/05/02 06:16:59;;;;;;;8.07;5.10;;;;;;;;;;4996130;28;20285;-51
2023/05/02 06:19:25;;;;;;;7.45;5.05;;;;;;;;;;4997206;28;20196;-51
2023/05/02 06:21:51;;;;;;;7.90;5.82;;;;;;;;;;4996949;28;20185;-51
2023/05/02 06:24:17;;;;;;;8.60;5.35;;;;;;;;;;4994778;28;20496;-51
2023/05/02 06:26:42;;;;;;;10.35;5.60;;;;;;;;;;4997458;28;20189;-51
2023/05/02 06:29:08;;;;;;;8.07;5.30;;;;;;;;;;4997362;28;20213;-51
2023/05/02 06:31:34;;;;;;;9.02;5.75;;;;;;;;;;4996584;28;20181;-51
2023/05/02 06:34:00;;;;;;;7.28;5.00;;;;;;;;;;4995974;28;20232;-51
2023/05/02 06:36:26;;;;;;;9.13;5.13;;;;;;;;;;4996722;28;20189;-51
2023/05/02 06:38:52;;;;;;;8.80;4.78;;;;;;;;;;4996120;28;20276;-51
2023/05/02 06:41:19;;;;;;;8.32;5.20;;;;;;;;;;4996580;28;20273;-51
2023/05/02 06:43:45;;;;;;;5.43;4.63;;;;;;;;;;4996601;28;20363;-51
2023/05/02 06:46:11;;;;;;;5.13;4.25;;;;;;;;;;4997146;28;20596;-51
2023/05/02 06:48:37;;;;;;;6.00;4.45;;;;;;;;;;4995900;28;20205;-51
2023/05/02 06:51:03;;;;;;;6.45;4.30;;;;;;;;;;4996642;28;20208;-51
2023/05/02 06:53:29;;;;;;;6.30;5.00;;;;;;;;;;4994638;28;20302;-51
2023/05/02 06:55:55;;;;;;;6.50;4.68;;;;;;;;;;4996511;28;20295;-51
2023/05/02 06:58:21;;;;;;;6.60;4.47;;;;;;;;;;4996263;28;20204;-51
2023/05/02 07:00:48;;;;;;;5.97;4.80;;;;;;;;;;4996214;28;20572;-51
2023/05/02 07:03:14;;;;;;;6.05;4.88;;;;;;;;;;4994907;28;20178;-51
2023/05/02 07:05:40;;;;;;;5.47;4.30;;;;;;;;;;4996130;28;20197;-51
2023/05/02 07:08:06;;;;;;;5.65;4.57;;;;;;;;;;4995492;28;20281;-52
2023/05/02 07:10:32;;;;;;;8.60;5.15;;;;;;;;;;4996317;28;20181;-51
2023/05/02 07:12:58;;;;;;;6.82;4.68;;;;;;;;;;4996744;28;20189;-51
2023/05/02 07:15:24;;;;;;;7.72;4.53;;;;;;;;;;4996275;28;20193;-51
2023/05/02 07:17:50;;;;;;;5.63;3.97;;;;;;;;;;4993929;28;20182;-51
2023/05/02 07:20:16;;;;;;;6.13;4.40;;;;;;;;;;4995585;28;20189;-52
2023/05/02 07:22:42;;;;;;;4.93;4.00;;;;;;;;;;4996769;28;20263;-51
2023/05/02 07:25:08;;;;;;;5.47;3.75;;;;;;;;;;4997218;28;20243;-51
2023/05/02 07:27:34;;;;;;;5.85;3.83;;;;;;;;;;4995905;28;20177;-51
2023/05/02 07:30:00;;;;;;;5.70;3.95;;;;;;;;;;4996796;28;20620;-51
2023/05/02 07:32:27;;;;;;;7.53;4.05;;;;;;;;;;4996736;28;20193;-51
2023/05/02 07:34:53;;;;;;;4.65;3.70;;;;;;;;;;4996765;28;20185;-51
2023/05/02 07:37:20;;;;;;;6.47;4.00;;;;;;;;;;4996391;28;20174;-51
2023/05/02 07:39:46;;;;;;;4.38;3.40;;;;;;;;;;4996795;28;20247;-51
2023/05/02 07:42:12;;;;;;;4.68;3.45;;;;;;;;;;4994437;28;20193;-51
2023/05/02 07:44:37;;;;;;;5.28;3.13;;;;;;;;;;4996568;28;20193;-51
2023/05/02 07:47:03;;;;;;;3.45;3.00;;;;;;;;;;4994800;28;20185;-51
2023/05/02 07:49:33;;;;;;;5.07;3.65;;;;;;;;;;4995427;28;20228;-51
2023/05/02 07:51:58;;;;;;;3.50;2.90;;;;;;;;;;4992451;28;20489;-51
2023/05/02 07:54:27;;;;;;;3.58;3.17;;;;;;;;;;4994888;28;20234;-51
2023/05/02 07:56:56;;;;;;;3.90;3.42;;;;;;;;;;4995955;28;20192;-51
2023/05/02 07:59:22;;;;;;;4.90;3.33;;;;;;;;;;4995873;28;20268;-51
2023/05/02 08:01:48;;;;;;;4.50;3.05;;;;;;;;;;4995728;28;20387;-51
2023/05/02 08:04:14;;;;;;;4.00;3.00;;;;;;;;;;4996366;28;20205;-51
2023/05/02 08:06:40;;;;;;;3.35;3.05;;;;;;;;;;4996259;28;20260;-51
2023/05/02 08:09:08;;;;;;;3.53;3.05;;;;;;;;;;4994994;28;20232;-51
2023/05/02 08:11:34;;;;;;;4.80;3.20;;;;;;;;;;4994716;28;20193;-51
2023/05/02 08:14:00;;;;;;;4.00;2.88;;;;;;;;;;4996435;28;20206;-51
2023/05/02 08:16:26;;;;;;;4.40;3.03;;;;;;;;;;4996220;28;20181;-51
2023/05/02 08:18:52;;;;;;;3.70;2.95;;;;;;;;;;4995453;28;20603;-51
2023/05/02 08:21:17;;;;;;;4.82;3.00;;;;;;;;;;4996018;28;20648;-51
2023/05/02 08:23:45;;;;;;;3.28;2.88;;;;;;;;;;4995796;28;20264;-51
2023/05/02 08:26:11;;;;;;;5.47;3.10;;;;;;;;;;4995779;28;20191;-51
2023/05/02 08:28:36;;;;;;;3.90;3.20;;;;;;;;;;4994186;28;20201;-51
2023/05/02 08:31:02;;;;;;;3.40;3.10;;;;;;;;;;4995542;28;20195;-51
2023/05/02 08:33:28;;;;;;;4.97;3.20;;;;;;;;;;4995939;28;20443;-51
2023/05/02 08:35:54;;;;;;;3.40;3.08;;;;;;;;;;4995639;28;20189;-51
2023/05/02 08:38:20;;;;;;;3.92;3.10;;;;;;;;;;4994943;28;20186;-51
2023/05/02 08:40:46;;;;;;;4.30;2.78;;;;;;;;;;4995492;28;20212;-52
2023/05/02 08:43:12;;;;;;;4.93;3.33;;;;;;;;;;4995323;28;20193;-51
2023/05/02 08:45:42;;;;;;;38.45;9.45;;;;;;;;;;4995536;28;20615;-51
2023/05/02 08:48:09;;;;;;;20.90;6.25;;;;;;;;;;4995033;28;20189;-51
2023/05/02 08:50:44;;;;;;;26.83;8.40;;;;;;;;;;4995493;28;20786;-51
2023/05/02 08:53:10;;;;;;;31.92;9.52;;;;;;;;;;4993817;28;20565;-51
2023/05/02 08:55:38;;;;;;;32.88;9.63;;;;;;;;;;4994859;28;20197;-51
2023/05/02 08:58:05;;;;;;;39.47;11.00;;;;;;;;;;4993962;28;20231;-51
2023/05/02 09:00:31;;;;;;;41.03;10.43;;;;;;;;;;4992926;28;20192;-52
2023/05/02 09:03:05;;;;;;;48.67;10.93;;;;;;;;;;4994480;28;20288;-51
2023/05/02 09:05:36;;;;;;;42.50;11.32;;;;;;;;;;4992781;28;20212;-51
2023/05/02 09:08:02;;;;;;;36.13;10.02;;;;;;;;;;4994523;28;20284;-51
2023/05/02 09:10:28;;;;;;;40.03;10.40;;;;;;;;;;4994142;28;20511;-51
2023/05/02 09:12:54;;;;;;;33.17;9.88;;;;;;;;;;4992893;28;20177;-51
2023/05/02 09:15:20;;;;;;;30.48;10.40;;;;;;;;;;4992435;28;20173;-51
2023/05/02 09:17:47;;;;;;;25.50;9.10;;;;;;;;;;4994405;28;20189;-51
2023/05/02 09:20:14;;;;;;;30.63;9.40;;;;;;;;;;4993577;28;20177;-51
2023/05/02 09:22:52;;;;;;;26.77;9.68;;;;;;;;;;4993807;28;20208;-52
2023/05/02 09:25:22;;;;;;;30.50;9.48;;;;;;;;;;4986281;28;20233;-51
2023/05/02 09:27:49;;;;;;;26.80;9.32;;;;;;;;;;4994276;28;20564;-51
2023/05/02 09:30:20;;;;;;;24.77;8.45;;;;;;;;;;4993661;28;20568;-51
2023/05/02 09:32:46;;;;;;;27.92;8.45;;;;;;;;;;4993477;28;20279;-51
2023/05/02 09:35:13;;;;;;;26.13;8.48;;;;;;;;;;4993965;28;20243;-51
2023/05/02 09:37:39;;;;;;;25.23;8.55;;;;;;;;;;4993815;28;20185;-52
2023/05/02 09:40:11;;;;;;;19.70;8.80;;;;;;;;;;4994359;28;20569;-52
2023/05/02 09:42:37;;;;;;;20.25;7.40;;;;;;;;;;4997898;28;20251;-51
2023/05/02 09:45:03;;;;;;;23.67;7.45;;;;;;;;;;4997139;28;20193;-51
2023/05/02 09:47:29;;;;;;;19.08;7.38;;;;;;;;;;4996564;28;20869;-51
2023/05/02 09:49:55;;;;;;;21.73;7.55;;;;;;;;;;4997777;28;20244;-52
2023/05/02 09:52:21;;;;;;;20.73;7.57;;;;;;;;;;4997671;28;20761;-51
2023/05/02 09:54:49;;;;;;;15.65;6.78;;;;;;;;;;4997714;28;20231;-51
2023/05/02 09:57:15;;;;;;;15.98;6.95;;;;;;;;;;4997368;28;20181;-51
2023/05/02 09:59:41;;;;;;;20.48;7.15;;;;;;;;;;4997560;28;20315;-52
2023/05/02 10:02:09;;;;;;;19.13;6.63;;;;;;;;;;4997697;28;20581;-52
2023/05/02 10:04:36;;;;;;;14.32;6.07;;;;;;;;;;4996383;28;20331;-52
2023/05/02 10:07:05;;;;;;;17.25;6.68;;;;;;;;;;4997279;28;20185;-51
2023/05/02 10:09:32;;;;;;;18.35;6.35;;;;;;;;;;4997261;28;20292;-51
2023/05/02 10:12:02;;;;;;;11.52;6.00;;;;;;;;;;4998148;28;20968;-52
2023/05/02 10:14:28;;;;;;;17.85;6.97;;;;;;;;;;4997031;28;20497;-51
2023/05/02 10:17:01;;;;;;;15.77;6.35;;;;;;;;;;4997931;28;20201;-51
2023/05/02 10:19:29;;;;;;;13.05;5.40;;;;;;;;;;4989995;28;20185;-52
2023/05/02 10:21:56;;;;;;;13.65;5.35;;;;;;;;;;4997410;28;20193;-52
2023/05/02 10:24:22;;;;;;;14.93;5.90;;;;;;;;;;4997285;28;20185;-51
2023/05/02 10:26:49;;;;;;;14.25;6.10;;;;;;;;;;4997559;28;20280;-51
2023/05/02 10:29:15;;;;;;;17.02;5.25;;;;;;;;;;4997247;28;20662;-51
2023/05/02 10:31:41;;;;;;;12.40;4.95;;;;;;;;;;4980532;28;20320;-52
2023/05/02 10:34:09;;;;;;;15.48;6.03;;;;;;;;;;4997537;28;20545;-52
2023/05/02 10:36:35;;;;;;;13.57;4.80;;;;;;;;;;4996791;28;20189;-52
2023/05/02 10:39:01;;;;;;;12.90;5.07;;;;;;;;;;4995908;28;20235;-51
2023/05/02 10:41:30;;;;;;;9.80;4.90;;;;;;;;;;4996926;28;20200;-52
2023/05/02 10:43:57;;;;;;;11.77;5.07;;;;;;;;;;4995856;28;20184;-52
2023/05/02 10:46:32;;;;;;;8.18;4.68;;;;;;;;;;4995710;28;20371;-52
2023/05/02 10:49:03;;;;;;;9.27;4.70;;;;;;;;;;4997046;28;20518;-52
2023/05/02 10:51:30;;;;;;;13.57;4.78;;;;;;;;;;4996659;28;20251;-52
2023/05/02 10:54:15;;;;;;;7.50;4.28;;;;;;;;;;4996126;28;20213;-52
2023/05/02 10:57:02;;;;;;;8.98;4.50;;;;;;;;;;4991660;28;20200;-52
2023/05/02 10:59:29;;;;;;;10.77;4.60;;;;;;;;;;4989981;28;20193;-52
2023/05/02 11:01:56;;;;;;;11.32;4.68;;;;;;;;;;4995858;28;20235;-52
2023/05/02 11:04:22;;;;;;;7.57;4.13;;;;;;;;;;4979493;28;20611;-52
2023/05/02 11:06:58;;;;;;;7.10;3.90;;;;;;;;;;4996602;28;20189;-52
2023/05/02 11:09:24;;;;;;;7.40;3.80;;;;;;;;;;4995274;28;20591;-52
2023/05/02 11:11:54;;;;;;;8.52;4.30;;;;;;;;;;4996492;28;20185;-52
2023/05/02 11:14:26;;;;;;;9.55;4.47;;;;;;;;;;4997008;28;20196;-52
2023/05/02 11:17:03;;;;;;;10.85;4.03;;;;;;;;;;4995993;28;20541;-52
2023/05/02 11:19:30;;;;;;;5.65;3.38;;;;;;;;;;4993570;28;20553;-52
2023/05/02 11:22:31;;;;;;;6.28;3.80;;;;;;;;;;4996593;28;20185;-52
2023/05/02 11:24:56;;;;;;;10.57;4.32;;;;;;;;;;4992583;28;20184;-52
2023/05/02 11:27:28;;;;;;;5.82;3.40;;;;;;;;;;4994416;28;20260;-52
2023/05/02 11:29:58;;;;;;;7.88;3.70;;;;;;;;;;4996562;28;20212;-52
2023/05/02 11:32:26;;;;;;;8.80;4.20;;;;;;;;;;4996165;28;20247;-52
2023/05/02 11:34:54;;;;;;;8.10;3.80;;;;;;;;;;4995677;28;20189;-52
2023/05/02 11:37:20;;;;;;;7.00;3.80;;;;;;;;;;4979028;28;20486;-52
2023/05/02 11:39:46;;;;;;;6.93;3.42;;;;;;;;;;4994669;28;20564;-52
2023/05/02 11:42:31;;;;;;;7.13;3.45;;;;;;;;;;4996037;28;20185;-52
2023/05/02 11:44:58;;;;;;;6.57;3.53;;;;;;;;;;4996305;28;20575;-52
2023/05/02 11:47:25;;;;;;;5.97;3.20;;;;;;;;;;4994838;28;20243;-52
2023/05/02 11:49:51;;;;;;;6.43;3.95;;;;;;;;;;4996227;28;20209;-52
2023/05/02 11:52:16;;;;;;;6.97;3.63;;;;;;;;;;4994708;28;20189;-52
2023/05/02 11:54:42;;;;;;;4.68;3.28;;;;;;;;;;4995831;28;20216;-52
2023/05/02 11:57:08;;;;;;;8.02;3.38;;;;;;;;;;4994651;28;20181;-52
2023/05/02 11:59:50;;;;;;;5.78;3.53;;;;;;;;;;4995208;28;20445;-52
2023/05/02 12:02:16;;;;;;;4.97;2.80;;;;;;;;;;4994482;28;20253;-52
2023/05/02 12:04:45;;;;;;;4.82;3.35;;;;;;;;;;4995203;28;20302;-52
2023/05/02 12:07:12;;;;;;;5.30;3.45;;;;;;;;;;4995117;28;20192;-52
2023/05/02 12:09:51;;;;;;;5.13;3.25;;;;;;;;;;4995843;28;20216;-52
2023/05/02 12:12:23;;;;;;;5.80;2.90;;;;;;;;;;4994464;28;20177;-52
2023/05/02 12:14:49;;;;;;;3.25;2.95;;;;;;;;;;4995056;28;20204;-52
2023/05/02 12:17:15;;;;;;;6.15;3.50;;;;;;;;;;4994482;28;20180;-52
2023/05/02 12:19:41;;;;;;;4.10;3.10;;;;;;;;;;4996126;28;20593;-52
2023/05/02 12:22:08;;;;;;;5.82;3.05;;;;;;;;;;4995312;28;20189;-52
2023/05/02 12:24:35;;;;;;;4.70;3.38;;;;;;;;;;4995065;28;20732;-52
2023/05/02 12:27:08;;;;;;;4.20;3.00;;;;;;;;;;4994979;28;20223;-52
2023/05/02 12:29:41;;;;;;;5.35;2.95;;;;;;;;;;4992139;28;20205;-52
2023/05/02 12:32:07;;;;;;;4.18;3.15;;;;;;;;;;4992114;28;20185;-52
2023/05/02 12:34:34;;;;;;;4.88;2.78;;;;;;;;;;4995396;28;20195;-52
2023/05/02 12:37:00;;;;;;;3.33;2.40;;;;;;;;;;4994334;28;20192;-52
2023/05/02 12:39:36;;;;;;;6.70;3.50;;;;;;;;;;4995222;28;20189;-52
2023/05/02 12:42:17;;;;;;;4.93;2.92;;;;;;;;;;4994904;28;20180;-52
2023/05/02 12:44:45;;;;;;;6.47;3.00;;;;;;;;;;4988847;28;20284;-54
2023/05/02 12:47:12;;;;;;;4.22;3.33;;;;;;;;;;4994677;28;20181;-52
2023/05/02 12:49:58;;;;;;;4.00;2.72;;;;;;;;;;4994392;28;20209;-52
2023/05/02 12:52:42;;;;;;;2.92;2.22;;;;;;;;;;4993906;28;20643;-52
2023/05/02 12:55:18;;;;;;;3.78;2.22;;;;;;;;;;4991721;28;20193;-52
2023/05/02 12:57:44;;;;;;;5.47;2.60;;;;;;;;;;4989981;28;20555;-52
2023/05/02 13:00:10;;;;;;;4.95;2.95;;;;;;;;;;4994490;28;20224;-52
2023/05/02 13:02:36;;;;;;;5.13;3.15;;;;;;;;;;4994506;28;20177;-52
2023/05/02 13:05:02;;;;;;;4.57;2.75;;;;;;;;;;4994271;28;20335;-52
2023/05/02 13:07:28;;;;;;;4.90;2.60;;;;;;;;;;4993868;28;20185;-52
2023/05/02 13:09:54;;;;;;;3.13;2.72;;;;;;;;;;4993478;28;20209;-52
2023/05/02 13:12:20;;;;;;;3.40;2.60;;;;;;;;;;4994282;28;20252;-52
2023/05/02 13:14:46;;;;;;;4.25;3.17;;;;;;;;;;4993855;28;20184;-52
2023/05/02 13:17:12;;;;;;;5.32;3.85;;;;;;;;;;4993713;28;20460;-52
2023/05/02 13:19:38;;;;;;;3.25;2.17;;;;;;;;;;4993752;28;20177;-52
2023/05/02 13:22:04;;;;;;;4.13;2.70;;;;;;;;;;4994031;28;20204;-53
2023/05/02 13:24:30;;;;;;;4.25;2.95;;;;;;;;;;4993914;28;20216;-52
2023/05/02 13:26:55;;;;;;;3.35;3.00;;;;;;;;;;4993392;28;20181;-52
2023/05/02 13:29:21;;;;;;;3.25;2.80;;;;;;;;;;4994427;28;20212;-52
2023/05/02 13:31:47;;;;;;;3.30;2.90;;;;;;;;;;4994165;28;20212;-52
2023/05/02 13:34:13;;;;;;;3.42;2.65;;;;;;;;;;4993081;28;20187;-53
2023/05/02 13:36:44;;;;;;;3.78;2.47;;;;;;;;;;4994240;28;20260;-52
2023/05/02 13:39:10;;;;;;;3.28;2.53;;;;;;;;;;4994166;28;20183;-52
2023/05/02 13:41:36;;;;;;;3.00;1.95;;;;;;;;;;4992724;28;20181;-52
2023/05/02 13:44:02;;;;;;;4.55;2.50;;;;;;;;;;4993655;28;20181;-52
2023/05/02 13:46:28;;;;;;;2.88;2.50;;;;;;;;;;4994940;28;20204;-52
2023/05/02 13:48:54;;;;;;;4.03;2.47;;;;;;;;;;4993710;28;20200;-52
2023/05/02 13:51:20;;;;;;;2.78;2.42;;;;;;;;;;4992354;28;20177;-52
2023/05/02 13:53:46;;;;;;;3.13;2.50;;;;;;;;;;4994378;28;20189;-52
2023/05/02 13:56:12;;;;;;;5.53;2.72;;;;;;;;;;4993368;28;20243;-52
2023/05/02 13:58:38;;;;;;;2.95;2.38;;;;;;;;;;4993564;28;20208;-52
2023/05/02 14:01:04;;;;;;;5.10;2.28;;;;;;;;;;4993886;28;20177;-52
2023/05/02 14:03:30;;;;;;;3.60;2.67;;;;;;;;;;4993592;28;20181;-52
2023/05/02 14:05:56;;;;;;;5.75;2.53;;;;;;;;;;4993945;28;20484;-51
2023/05/02 14:08:22;;;;;;;4.30;2.45;;;;;;;;;;4991827;28;20178;-51
2023/05/02 14:10:48;;;;;;;5.05;2.38;;;;;;;;;;4993807;28;20445;-51
2023/05/02 14:13:13;;;;;;;2.03;1.83;;;;;;;;;;4993449;28;20182;-50
2023/05/02 14:15:39;;;;;;;3.42;1.90;;;;;;;;;;4994031;28;20177;-50
2023/05/02 14:18:05;;;;;;;2.83;2.03;;;;;;;;;;4993415;28;20189;-51
2023/05/02 14:20:31;;;;;;;3.72;2.03;;;;;;;;;;4993518;28;20350;-51
2023/05/02 14:22:57;;;;;;;4.82;2.13;;;;;;;;;;4993669;28;20185;-51
2023/05/02 14:25:23;;;;;;;3.10;1.70;;;;;;;;;;4994094;28;20221;-51
2023/05/02 14:27:49;;;;;;;3.00;1.88;;;;;;;;;;4996026;28;20239;-51
2023/05/02 14:30:15;;;;;;;2.65;1.83;;;;;;;;;;4996939;28;20483;-51
2023/05/02 14:32:41;;;;;;;3.78;2.00;;;;;;;;;;4997571;28;20181;-51
2023/05/02 14:35:07;;;;;;;1.73;1.63;;;;;;;;;;4995095;28;20192;-51
2023/05/02 14:37:33;;;;;;;1.92;1.65;;;;;;;;;;4997271;28;20185;-51
2023/05/02 14:39:59;;;;;;;2.47;1.80;;;;;;;;;;4997350;28;20197;-51